CRH weather

Cherrabah Airport
Cherrabah Homestead Resort, Queensland, Australia

Public forecast

Using degrees Celsius for public forecast. Weather courtesy of forecast.io.

METAR (pilot weather report)

Closest report is RAAF Base Amberley, 57.8 nm (107.0 km) NE. Retrieved 2019/04/25 11:30 UTC (10 minutes ago):

YAMB 251130Z AUTO 00000KT //// // SCT030 19/16 Q1019

TAF (pilot weather forecast)

Closest forecast is RAAF Base Amberley, 57.8 nm (107.0 km) NE. Retrieved 2019/04/25 08:00 UTC (4 hours ago):

TAF YAMB 250756Z 2508/2524 08010KT 9999 SCT045 FM251000 VRB03KT 9999 SCT040